Time;durP1;ratioP1;P1;durP2;ratioP2;P2;SDS_P1;SDS_P2;PMS_P1;PMS_P2;Temp;Humidity;BMP_temperature;BMP_pressure;BME280_temperature;BME280_humidity;BME280_pressure;Samples;Min_cycle;Max_cycle;Signal;HPM_P1;HPM_P2
2023/06/30 00:01:25;;;;;;;5.18;3.50;;;;;;;15.11;86.86;101212.56;5006002;28;20412;-84
2023/06/30 00:03:51;;;;;;;5.53;3.80;;;;;;;15.01;87.05;101199.50;5005614;28;20038;-84
2023/06/30 00:06:16;;;;;;;5.35;3.60;;;;;;;15.05;87.54;101213.47;4985183;28;20318;-84
2023/06/30 00:08:42;;;;;;;4.22;3.80;;;;;;;15.03;87.50;101212.00;5006273;28;20033;-84
2023/06/30 00:11:07;;;;;;;4.63;3.90;;;;;;;15.01;87.93;101214.94;5003980;28;20523;-84
2023/06/30 00:13:33;;;;;;;8.77;3.83;;;;;;;15.04;87.36;101205.53;5003826;28;20497;-85
2023/06/30 00:15:58;;;;;;;5.75;3.97;;;;;;;15.00;87.23;101205.97;5003099;28;20469;-84
2023/06/30 00:18:23;;;;;;;4.35;3.80;;;;;;;14.96;87.39;101206.63;5006198;28;20057;-85
2023/06/30 00:20:49;;;;;;;5.50;3.90;;;;;;;14.99;87.04;101217.03;5004174;28;20778;-84
2023/06/30 00:23:14;;;;;;;7.93;4.10;;;;;;;14.94;87.56;101223.13;5005204;28;20030;-84
2023/06/30 00:25:40;;;;;;;6.75;4.05;;;;;;;14.89;87.34;101217.50;5000151;28;20473;-84
2023/06/30 00:28:05;;;;;;;5.18;3.70;;;;;;;14.88;87.40;101213.13;5004245;28;20500;-84
2023/06/30 00:30:31;;;;;;;5.63;4.13;;;;;;;14.87;87.59;101211.47;5005045;28;20025;-84
2023/06/30 00:32:56;;;;;;;6.72;3.95;;;;;;;14.83;86.96;101205.66;5004858;28;20030;-83
2023/06/30 00:35:21;;;;;;;3.85;3.17;;;;;;;14.85;86.96;101208.16;5001325;28;20026;-84
2023/06/30 00:37:47;;;;;;;5.18;3.33;;;;;;;14.87;86.64;101206.06;5005851;28;20055;-84
2023/06/30 00:40:14;;;;;;;5.35;3.50;;;;;;;14.87;85.80;101222.31;5004018;28;21031;-84
2023/06/30 00:42:39;;;;;;;4.68;3.10;;;;;;;14.83;86.03;101221.06;5002302;28;20033;-84
2023/06/30 00:45:05;;;;;;;4.80;3.33;;;;;;;14.80;85.83;101216.94;4986745;28;20065;-84
2023/06/30 00:47:31;;;;;;;5.13;3.55;;;;;;;14.81;85.62;101217.78;5005752;28;20483;-83
2023/06/30 00:49:56;;;;;;;6.72;3.53;;;;;;;14.80;85.69;101208.00;4986719;28;20466;-82
2023/06/30 00:52:22;;;;;;;5.78;3.38;;;;;;;14.78;85.36;101207.38;5065227;28;20033;-84
2023/06/30 00:54:47;;;;;;;5.53;3.38;;;;;;;14.73;85.42;101199.03;5005202;28;20034;-83
2023/06/30 00:57:12;;;;;;;6.38;3.67;;;;;;;14.70;85.69;101206.56;5002226;28;20036;-83
2023/06/30 00:59:38;;;;;;;6.65;3.65;;;;;;;14.67;85.94;101196.09;5005423;28;20076;-84
2023/06/30 01:02:08;;;;;;;4.47;3.50;;;;;;;14.67;85.61;101196.09;5005615;28;20033;-84
2023/06/30 01:04:50;;;;;;;4.80;3.28;;;;;;;14.68;85.49;101202.41;4970150;28;20034;-84
2023/06/30 01:07:39;;;;;;;6.95;3.63;;;;;;;14.61;85.91;101201.56;5064522;28;20131;-83
2023/06/30 01:10:15;;;;;;;4.32;3.25;;;;;;;14.58;85.95;101207.41;4987932;28;20564;-84
2023/06/30 01:12:41;;;;;;;6.95;2.97;;;;;;;14.58;86.01;101202.84;4988967;28;20041;-84
2023/06/30 01:15:07;;;;;;;5.75;3.30;;;;;;;14.54;85.55;101207.00;4989168;28;20025;-83
2023/06/30 01:17:33;;;;;;;5.45;3.13;;;;;;;14.54;85.60;101207.88;4990124;28;20038;-84
2023/06/30 01:19:59;;;;;;;4.55;2.75;;;;;;;14.54;85.42;101204.31;5059139;28;20498;-84
2023/06/30 01:22:31;;;;;;;5.32;2.80;;;;;;;14.52;85.38;101200.97;4989921;28;20065;-83
2023/06/30 01:24:58;;;;;;;5.72;2.95;;;;;;;14.53;85.22;101197.22;5004329;28;20490;-83
2023/06/30 01:27:24;;;;;;;8.88;2.97;;;;;;;14.53;85.03;101205.34;4987665;28;20025;-83
2023/06/30 01:29:50;;;;;;;6.45;2.97;;;;;;;14.46;85.31;101204.56;4988307;28;20030;-83
2023/06/30 01:32:16;;;;;;;5.65;2.80;;;;;;;14.48;85.35;101207.88;4989322;28;20032;-83
2023/06/30 01:34:42;;;;;;;6.15;3.25;;;;;;;14.46;85.46;101205.38;5005366;28;20146;-83
2023/06/30 01:37:08;;;;;;;7.82;2.72;;;;;;;14.45;84.91;101203.72;5006852;28;20117;-84
2023/06/30 01:39:33;;;;;;;5.65;2.85;;;;;;;14.47;84.69;101212.47;5008503;28;20174;-83
2023/06/30 01:41:58;;;;;;;5.53;2.65;;;;;;;14.49;84.70;101209.53;5008644;28;20041;-85
2023/06/30 01:44:24;;;;;;;7.85;2.95;;;;;;;14.49;84.48;101209.53;4973492;28;20030;-84
2023/06/30 01:46:49;;;;;;;7.28;2.70;;;;;;;14.45;84.33;101214.56;4991471;28;20038;-83
2023/06/30 01:49:15;;;;;;;5.20;2.80;;;;;;;14.44;84.47;101212.06;5008561;28;20487;-83
2023/06/30 01:51:40;;;;;;;6.30;2.67;;;;;;;14.42;84.55;101208.75;4989594;28;20033;-84
2023/06/30 01:54:05;;;;;;;7.78;2.80;;;;;;;14.37;83.71;101207.50;5007631;28;20462;-84
2023/06/30 01:56:31;;;;;;;6.43;2.90;;;;;;;14.31;83.84;101212.94;4988988;28;20046;-84
2023/06/30 01:58:56;;;;;;;8.68;2.50;;;;;;;14.36;83.84;101215.84;4989282;28;20087;-85
2023/06/30 02:01:21;;;;;;;3.15;2.33;;;;;;;14.37;83.87;101215.63;5008173;28;20474;-83
2023/06/30 02:03:48;;;;;;;7.90;2.53;;;;;;;14.35;83.55;101219.59;5006009;28;20062;-83
2023/06/30 02:06:13;;;;;;;5.00;2.58;;;;;;;14.34;83.50;101220.66;5006403;28;20129;-84
2023/06/30 02:08:39;;;;;;;5.80;2.70;;;;;;;14.34;83.16;101213.34;5008518;28;20033;-84
2023/06/30 02:11:04;;;;;;;5.90;2.53;;;;;;;14.29;83.64;101223.16;5007588;28;20038;-84
2023/06/30 02:13:30;;;;;;;6.10;2.55;;;;;;;14.23;83.53;101214.81;5006834;28;20465;-83
2023/06/30 02:15:55;;;;;;;6.18;2.80;;;;;;;14.21;83.54;101214.19;5007417;28;20030;-83
2023/06/30 02:18:22;;;;;;;11.65;3.10;;;;;;;14.12;83.20;101209.25;5006263;28;20067;-83
2023/06/30 02:20:47;;;;;;;6.57;2.70;;;;;;;14.03;83.29;101212.16;5006755;28;20389;-79
2023/06/30 02:23:13;;;;;;;5.68;2.50;;;;;;;13.98;83.31;101209.25;5008696;28;20083;-80
2023/06/30 02:25:38;;;;;;;5.55;2.58;;;;;;;14.00;82.96;101217.19;5006502;28;20026;-80
2023/06/30 02:28:03;;;;;;;4.70;2.28;;;;;;;13.96;83.02;101214.03;5006425;28;20033;-79
2023/06/30 02:30:29;;;;;;;8.68;2.85;;;;;;;13.92;83.06;101210.13;5007421;28;20050;-81
2023/06/30 02:32:54;;;;;;;6.10;2.88;;;;;;;13.87;83.18;101207.19;5007778;28;20040;-80
2023/06/30 02:35:20;;;;;;;5.35;2.30;;;;;;;13.83;83.12;101214.06;5005334;28;20388;-80
2023/06/30 02:37:45;;;;;;;7.30;2.40;;;;;;;13.76;82.72;101211.38;5007060;28;20095;-80
2023/06/30 02:40:11;;;;;;;9.05;2.85;;;;;;;13.70;82.46;101213.03;5006830;28;20014;-81
2023/06/30 02:42:36;;;;;;;6.38;2.72;;;;;;;13.63;82.67;101212.19;5005700;28;20877;-80
2023/06/30 02:45:03;;;;;;;6.40;2.55;;;;;;;13.54;83.13;101216.16;5006600;28;20561;-80
2023/06/30 02:47:29;;;;;;;8.95;2.95;;;;;;;13.42;82.90;101215.94;5006167;28;20546;-80
2023/06/30 02:49:54;;;;;;;7.47;2.85;;;;;;;13.34;82.75;101211.53;5003998;28;20018;-80
2023/06/30 02:52:22;;;;;;;7.70;2.60;;;;;;;13.18;83.48;101219.03;5004977;28;20030;-80
2023/06/30 02:54:47;;;;;;;6.55;2.60;;;;;;;13.10;83.98;101218.38;5006565;28;20053;-79
2023/06/30 02:57:13;;;;;;;5.63;2.60;;;;;;;13.00;84.07;101218.78;5005912;28;20061;-80
2023/06/30 02:59:38;;;;;;;7.55;2.78;;;;;;;12.89;84.31;101212.09;5006094;28;20049;-81
2023/06/30 03:02:04;;;;;;;6.50;2.75;;;;;;;12.79;84.51;101217.06;5006041;28;20036;-81
2023/06/30 03:04:30;;;;;;;7.72;2.80;;;;;;;12.70;84.42;101211.81;5006751;28;20034;-79
2023/06/30 03:06:55;;;;;;;6.03;2.95;;;;;;;12.62;85.22;101216.56;5005363;28;20563;-79
2023/06/30 03:09:20;;;;;;;7.05;2.42;;;;;;;12.53;85.21;101222.13;5005976;28;20026;-80
2023/06/30 03:11:46;;;;;;;5.25;2.78;;;;;;;12.50;85.13;101219.00;5008075;28;20083;-80
2023/06/30 03:14:11;;;;;;;7.38;2.80;;;;;;;12.41;85.31;101218.34;5006691;28;20041;-80
2023/06/30 03:16:37;;;;;;;6.07;2.47;;;;;;;12.41;85.17;101226.44;5003706;28;20117;-80
2023/06/30 03:19:02;;;;;;;7.70;2.80;;;;;;;12.34;85.56;101225.59;5005733;28;20052;-80
2023/06/30 03:21:27;;;;;;;7.78;3.03;;;;;;;12.26;85.93;101230.09;5005973;28;20433;-80
2023/06/30 03:23:53;;;;;;;7.00;2.80;;;;;;;12.20;85.76;101228.19;5006407;28;20026;-80
2023/06/30 03:26:18;;;;;;;7.70;3.03;;;;;;;12.22;86.09;101226.13;5005676;28;20304;-80
2023/06/30 03:28:43;;;;;;;7.95;2.80;;;;;;;12.16;86.15;101226.94;5005418;28;20014;-81
2023/06/30 03:31:09;;;;;;;5.30;2.70;;;;;;;12.09;86.07;101228.75;5006448;28;20505;-81
2023/06/30 03:33:34;;;;;;;6.38;2.80;;;;;;;12.05;86.23;101230.16;4997046;28;20069;-81
2023/06/30 03:36:00;;;;;;;5.07;3.08;;;;;;;12.02;86.89;101230.56;4991835;28;20112;-80
2023/06/30 03:38:25;;;;;;;6.13;3.33;;;;;;;11.98;86.91;101230.09;5007396;28;20030;-80
2023/06/30 03:40:50;;;;;;;9.50;3.17;;;;;;;11.96;86.64;101227.59;5007124;28;20354;-80
2023/06/30 03:43:16;;;;;;;5.22;2.60;;;;;;;11.94;86.62;101232.38;4993768;28;20146;-80
2023/06/30 03:45:41;;;;;;;6.50;2.80;;;;;;;11.91;86.42;101237.31;4995034;28;20029;-80
2023/06/30 03:48:06;;;;;;;4.25;2.80;;;;;;;11.91;86.34;101231.94;5005400;28;20025;-80
2023/06/30 03:50:32;;;;;;;5.00;2.83;;;;;;;11.93;86.39;101233.38;5001195;28;20034;-80
2023/06/30 03:52:57;;;;;;;8.82;2.97;;;;;;;11.97;85.99;101226.56;5006116;28;20030;-80
2023/06/30 03:55:23;;;;;;;6.13;3.08;;;;;;;12.02;85.16;101227.84;5006645;28;20022;-80
2023/06/30 03:57:48;;;;;;;6.80;2.78;;;;;;;12.08;84.24;101227.09;5006615;28;20033;-79
2023/06/30 04:00:14;;;;;;;7.43;2.90;;;;;;;12.16;83.78;101224.25;5000735;28;20030;-80
2023/06/30 04:02:39;;;;;;;5.15;2.50;;;;;;;12.21;83.17;101220.94;5006891;28;20067;-80
2023/06/30 04:05:05;;;;;;;6.40;2.72;;;;;;;12.25;83.19;101223.03;5006537;28;20025;-80
2023/06/30 04:07:30;;;;;;;4.55;2.55;;;;;;;12.31;82.87;101221.41;5006934;28;20061;-83
2023/06/30 04:09:56;;;;;;;6.50;2.80;;;;;;;12.34;82.70;101221.00;5006092;28;20026;-80
2023/06/30 04:12:21;;;;;;;4.82;2.80;;;;;;;12.38;82.13;101222.28;5004203;28;20393;-80
2023/06/30 04:14:48;;;;;;;6.25;2.55;;;;;;;12.43;81.93;101211.72;5005500;28;20082;-79
2023/06/30 04:17:13;;;;;;;7.75;3.15;;;;;;;12.50;81.60;101211.75;5004623;28;20516;-81
2023/06/30 04:19:39;;;;;;;7.15;3.30;;;;;;;12.54;81.28;101212.16;5004281;28;20044;-79
2023/06/30 04:22:04;;;;;;;5.68;3.00;;;;;;;12.59;81.18;101210.53;5006131;28;20022;-82
2023/06/30 04:24:30;;;;;;;5.45;3.00;;;;;;;12.65;81.40;101214.28;5002311;28;20045;-81
2023/06/30 04:26:55;;;;;;;5.93;2.60;;;;;;;12.72;80.84;101206.19;5005756;28;20034;-79
2023/06/30 04:29:20;;;;;;;6.45;2.70;;;;;;;12.78;80.29;101207.28;5005201;28;20030;-79
2023/06/30 04:31:46;;;;;;;11.13;3.38;;;;;;;12.78;79.34;101205.41;5003474;28;20025;-81
2023/06/30 04:34:11;;;;;;;6.03;2.75;;;;;;;12.76;79.57;101206.66;5003763;28;20026;-81
2023/06/30 04:36:36;;;;;;;5.85;3.10;;;;;;;12.83;79.71;101199.38;5006271;28;20030;-81
2023/06/30 04:39:02;;;;;;;7.43;2.78;;;;;;;13.12;78.93;101205.50;5005097;28;20516;-79
2023/06/30 04:41:28;;;;;;;5.57;2.90;;;;;;;13.44;77.91;101205.75;4985493;28;20086;-80
2023/06/30 04:43:54;;;;;;;6.75;3.03;;;;;;;13.98;76.25;101203.03;5006969;28;20385;-80
2023/06/30 04:46:19;;;;;;;5.63;2.65;;;;;;;14.73;73.22;101207.19;5002783;28;20468;-83
2023/06/30 04:48:45;;;;;;;6.85;3.08;;;;;;;15.15;70.15;101208.38;5001589;28;20034;-83
2023/06/30 04:51:10;;;;;;;7.85;3.00;;;;;;;15.36;68.90;101209.09;5005227;28;20473;-88
2023/06/30 04:53:38;;;;;;;9.30;3.00;;;;;;;15.59;68.66;101218.50;5005051;28;20029;-85
2023/06/30 04:56:04;;;;;;;5.70;2.67;;;;;;;16.01;67.22;101210.63;5002887;28;20030;-85
2023/06/30 04:58:29;;;;;;;5.68;2.63;;;;;;;16.23;66.47;101212.09;4993522;28;20115;-87
2023/06/30 05:00:56;;;;;;;8.38;2.88;;;;;;;16.31;65.09;101211.78;4999061;28;20600;-87
2023/06/30 05:03:21;;;;;;;9.80;3.20;;;;;;;16.35;65.59;101215.72;5004338;28;20132;-88
2023/06/30 05:05:47;;;;;;;8.27;3.20;;;;;;;16.54;64.29;101221.13;5005706;28;20659;-86
2023/06/30 05:08:14;;;;;;;7.63;3.03;;;;;;;16.39;65.06;101222.34;5000279;28;20026;-82
2023/06/30 05:10:39;;;;;;;9.00;2.83;;;;;;;17.08;63.36;101219.41;5004896;28;20397;-84
2023/06/30 05:13:05;;;;;;;8.43;3.10;;;;;;;17.26;61.85;101231.28;5005173;28;20037;-88
2023/06/30 05:15:31;;;;;;;5.90;3.10;;;;;;;17.37;62.66;101233.19;5008204;28;20022;-87
2023/06/30 05:17:56;;;;;;;7.88;2.90;;;;;;;17.71;61.40;101229.94;5008989;28;20030;-82
2023/06/30 05:20:22;;;;;;;8.52;3.03;;;;;;;17.98;60.52;101235.78;5006004;28;20026;-83
2023/06/30 05:22:47;;;;;;;7.03;3.00;;;;;;;18.29;58.77;101247.34;5005240;28;20030;-81
2023/06/30 05:25:12;;;;;;;10.48;3.28;;;;;;;18.13;59.76;101248.09;5002909;28;20045;-82
2023/06/30 05:27:41;;;;;;;7.32;3.22;;;;;;;18.40;58.20;101250.28;5004456;28;20044;-82
2023/06/30 05:30:07;;;;;;;7.78;3.63;;;;;;;18.96;56.35;101247.94;5005314;28;20045;-82
2023/06/30 05:32:38;;;;;;;9.00;3.03;;;;;;;18.83;57.10;101249.00;5003442;28;20038;-83
2023/06/30 05:35:04;;;;;;;6.20;2.50;;;;;;;19.52;55.01;101256.28;5004925;28;20038;-82
2023/06/30 05:37:29;;;;;;;6.90;2.70;;;;;;;18.94;55.85;101253.59;5004633;28;20045;-84
2023/06/30 05:39:57;;;;;;;4.80;2.60;;;;;;;18.99;57.13;101254.78;5004109;28;20030;-80
2023/06/30 05:42:23;;;;;;;6.93;2.60;;;;;;;19.13;55.48;101247.94;5005906;28;20034;-82
2023/06/30 05:44:50;;;;;;;9.05;3.00;;;;;;;18.71;56.74;101253.69;5005881;28;20091;-82
2023/06/30 05:47:16;;;;;;;8.85;3.05;;;;;;;19.16;55.97;101263.00;5002991;28;20506;-84
2023/06/30 05:49:41;;;;;;;5.40;2.75;;;;;;;19.43;55.88;101246.81;5003464;28;20030;-81
2023/06/30 05:52:07;;;;;;;6.10;2.63;;;;;;;19.78;54.50;101259.41;4999976;28;20030;-82
2023/06/30 05:54:32;;;;;;;5.15;2.75;;;;;;;19.77;55.01;101254.22;5007264;28;20515;-83
2023/06/30 05:56:58;;;;;;;4.82;2.72;;;;;;;20.14;53.25;101249.06;5007629;28;20034;-82
2023/06/30 05:59:23;;;;;;;8.57;2.70;;;;;;;20.48;51.77;101247.31;5006926;28;20038;-83
2023/06/30 06:01:48;;;;;;;5.68;2.38;;;;;;;20.67;51.01;101248.63;5007612;28;20026;-82
2023/06/30 06:04:14;;;;;;;6.78;2.70;;;;;;;20.64;50.90;101249.16;5008503;28;20188;-81
2023/06/30 06:06:39;;;;;;;7.63;2.70;;;;;;;20.72;49.78;101251.44;5008231;28;20148;-82
2023/06/30 06:09:05;;;;;;;5.72;2.22;;;;;;;21.37;49.93;101256.25;5008858;28;20125;-81
2023/06/30 06:11:30;;;;;;;5.35;2.17;;;;;;;22.01;46.91;101264.72;5007606;28;20032;-81
2023/06/30 06:13:55;;;;;;;5.85;2.28;;;;;;;21.99;47.43;101255.94;5008758;28;20465;-81
2023/06/30 06:16:21;;;;;;;4.00;2.03;;;;;;;22.17;46.81;101260.13;5009338;28;20133;-81
2023/06/30 06:18:47;;;;;;;3.22;1.85;;;;;;;22.56;45.64;101263.41;5008592;28;20362;-81
2023/06/30 06:21:12;;;;;;;4.68;2.00;;;;;;;21.81;46.86;101258.00;5007619;28;20154;-81
2023/06/30 06:23:38;;;;;;;4.10;1.90;;;;;;;22.42;44.99;101264.97;5005532;28;20022;-80
2023/06/30 06:26:03;;;;;;;4.32;1.83;;;;;;;22.95;44.02;101258.56;5006437;28;20062;-83
2023/06/30 06:28:29;;;;;;;3.20;1.70;;;;;;;23.06;44.27;101263.00;5009306;28;20373;-81
2023/06/30 06:30:54;;;;;;;6.15;2.03;;;;;;;24.10;41.81;101274.03;5009272;28;20025;-81
2023/06/30 06:33:20;;;;;;;3.83;2.00;;;;;;;24.85;39.39;101259.50;5003415;28;20499;-81
2023/06/30 06:35:45;;;;;;;4.22;2.10;;;;;;;25.45;38.60;101260.50;5009308;28;20022;-80
2023/06/30 06:38:16;;;;;;;5.72;1.83;;;;;;;25.92;37.64;101272.75;5028425;28;20022;-82
2023/06/30 06:40:41;;;;;;;4.35;1.70;;;;;;;25.66;38.14;101266.66;5007590;28;20026;-84
2023/06/30 06:43:07;;;;;;;3.67;1.33;;;;;;;25.84;36.73;101268.69;5000887;28;20022;-81
2023/06/30 06:45:32;;;;;;;5.30;1.70;;;;;;;25.90;37.31;101272.22;5004160;28;20354;-81
2023/06/30 06:48:16;;;;;;;7.18;1.65;;;;;;;25.17;38.42;101268.38;5007658;28;20071;-81
2023/06/30 06:50:41;;;;;;;12.10;1.90;;;;;;;24.73;39.38;101264.50;5008645;28;20489;-81
2023/06/30 06:53:07;;;;;;;4.03;1.50;;;;;;;24.87;39.15;101270.22;5008297;28;20032;-81
2023/06/30 06:55:33;;;;;;;5.45;1.65;;;;;;;25.93;37.39;101262.56;5007669;28;20034;-82
2023/06/30 06:57:58;;;;;;;4.60;1.60;;;;;;;26.89;35.74;101266.41;5009499;28;20034;-80
2023/06/30 07:00:23;;;;;;;3.28;1.30;;;;;;;27.05;34.76;101267.84;5008340;28;20026;-81
2023/06/30 07:02:49;;;;;;;4.10;1.35;;;;;;;25.72;37.12;101265.50;5007781;28;20480;-81
2023/06/30 07:05:14;;;;;;;3.22;1.40;;;;;;;25.35;38.06;101261.38;5007954;28;20026;-81
2023/06/30 07:07:40;;;;;;;3.88;1.30;;;;;;;24.74;39.06;101261.47;5008499;28;20022;-81
2023/06/30 07:10:06;;;;;;;8.70;1.60;;;;;;;25.13;39.06;101257.09;5007691;28;20033;-81
2023/06/30 07:12:31;;;;;;;4.32;1.50;;;;;;;26.70;35.01;101263.63;5008871;28;20173;-82
2023/06/30 07:14:57;;;;;;;4.13;1.45;;;;;;;26.76;34.87;101262.41;5008022;28;20026;-82
2023/06/30 07:17:22;;;;;;;3.35;1.20;;;;;;;25.64;35.55;101261.44;5007146;28;20091;-81
2023/06/30 07:19:47;;;;;;;3.53;1.45;;;;;;;25.62;36.31;101257.31;5008836;28;20033;-81
2023/06/30 07:22:13;;;;;;;2.83;1.20;;;;;;;25.22;37.43;101255.41;5007206;28;20602;-81
2023/06/30 07:24:38;;;;;;;4.95;1.17;;;;;;;26.44;35.27;101262.00;5008683;28;20030;-80
2023/06/30 07:27:04;;;;;;;2.97;1.25;;;;;;;27.18;33.92;101257.97;5010696;28;20056;-81
2023/06/30 07:29:30;;;;;;;2.60;1.25;;;;;;;27.69;31.88;101266.56;5012281;28;20038;-80
2023/06/30 07:31:55;;;;;;;4.32;1.27;;;;;;;25.67;35.42;101260.88;5008723;28;20461;-80
2023/06/30 07:34:23;;;;;;;3.78;1.60;;;;;;;25.30;36.37;101261.41;5008330;28;20036;-81
2023/06/30 07:36:49;;;;;;;2.75;1.25;;;;;;;24.50;37.24;101261.28;5007521;28;20058;-81
2023/06/30 07:39:14;;;;;;;4.25;1.42;;;;;;;24.29;37.93;101261.34;5005967;28;20041;-80
2023/06/30 07:41:43;;;;;;;3.90;1.30;;;;;;;24.75;37.42;101257.63;5008173;28;20145;-81
2023/06/30 07:44:11;;;;;;;3.53;1.20;;;;;;;26.28;35.27;101257.78;5008063;28;20030;-81
2023/06/30 07:46:37;;;;;;;3.50;1.40;;;;;;;27.09;33.37;101268.06;5007908;28;20022;-81
2023/06/30 07:49:03;;;;;;;3.20;1.20;;;;;;;27.55;32.58;101269.28;5008326;28;20465;-81
2023/06/30 07:51:29;;;;;;;4.07;1.20;;;;;;;27.12;33.15;101261.13;5006738;28;20529;-81
2023/06/30 07:53:55;;;;;;;4.63;1.20;;;;;;;26.42;34.35;101257.88;5006909;28;20473;-81
2023/06/30 07:56:20;;;;;;;3.45;1.23;;;;;;;25.76;35.11;101255.53;5007743;28;20045;-81
2023/06/30 07:58:45;;;;;;;2.92;1.30;;;;;;;26.84;34.27;101252.66;5008151;28;20057;-81
2023/06/30 08:01:20;;;;;;;4.88;1.65;;;;;;;27.49;33.37;101263.03;4989984;28;20037;-81
2023/06/30 08:03:48;;;;;;;3.75;1.30;;;;;;;28.74;31.35;101265.13;5007882;28;20034;-81
2023/06/30 08:06:14;;;;;;;2.55;1.20;;;;;;;29.01;30.35;101268.97;5006178;28;20094;-81
2023/06/30 08:08:39;;;;;;;4.05;1.30;;;;;;;29.17;29.58;101280.50;5006758;28;20034;-82
2023/06/30 08:11:05;;;;;;;3.50;1.40;;;;;;;29.56;29.42;101264.34;5006933;28;20389;-82
2023/06/30 08:13:30;;;;;;;3.17;1.35;;;;;;;29.47;29.44;101269.00;5018622;22;20051;-82
2023/06/30 08:15:56;;;;;;;4.45;1.55;;;;;;;29.25;30.04;101267.03;5069507;28;20431;-82
2023/06/30 08:18:21;;;;;;;3.00;1.40;;;;;;;28.28;32.00;101264.09;5068961;28;20036;-82
2023/06/30 08:20:46;;;;;;;4.47;1.50;;;;;;;28.89;31.01;101275.06;5071100;28;20025;-82
2023/06/30 08:23:14;;;;;;;3.58;1.33;;;;;;;29.78;29.38;101266.25;5068965;28;20039;-82
2023/06/30 08:25:40;;;;;;;5.43;1.70;;;;;;;29.75;28.02;101271.59;5068049;28;20028;-82
2023/06/30 08:28:05;;;;;;;3.80;1.50;;;;;;;28.66;29.77;101260.28;5070941;28;20354;-82
2023/06/30 08:30:30;;;;;;;3.33;1.45;;;;;;;29.64;29.68;101260.78;5069579;28;20021;-82
2023/06/30 08:32:56;;;;;;;3.33;1.30;;;;;;;29.72;28.88;101259.19;5069229;28;20089;-82
2023/06/30 08:35:21;;;;;;;6.32;1.70;;;;;;;28.57;30.62;101249.13;5070214;28;20472;-81
2023/06/30 08:37:47;;;;;;;2.97;1.27;;;;;;;28.65;30.01;101252.28;5069278;28;20053;-81
2023/06/30 08:40:12;;;;;;;3.22;1.30;;;;;;;30.54;28.21;101244.16;5068044;28;20024;-81
2023/06/30 08:42:40;;;;;;;3.05;1.30;;;;;;;30.68;27.36;101242.13;5070422;28;20407;-81
2023/06/30 08:45:06;;;;;;;2.78;1.48;;;;;;;28.06;30.62;101250.97;5069890;28;20039;-81
2023/06/30 08:47:32;;;;;;;2.95;1.40;;;;;;;26.41;33.52;101246.03;5050460;28;20036;-81
2023/06/30 08:49:58;;;;;;;4.35;1.42;;;;;;;26.33;33.95;101244.75;5070677;28;20032;-81
2023/06/30 08:52:23;;;;;;;2.63;1.27;;;;;;;27.67;31.28;101247.53;5069360;28;20028;-81
2023/06/30 08:54:54;;;;;;;5.72;1.48;;;;;;;26.69;33.03;101248.97;5049001;28;20052;-81
2023/06/30 08:57:25;;;;;;;2.60;1.35;;;;;;;28.77;30.60;101243.47;5069989;28;20036;-81
2023/06/30 08:59:50;;;;;;;4.93;1.65;;;;;;;29.74;29.26;101242.25;5070220;28;20059;-81
2023/06/30 09:02:16;;;;;;;1.77;1.30;;;;;;;29.52;28.60;101245.84;5068681;28;20100;-81
2023/06/30 09:04:41;;;;;;;3.85;1.27;;;;;;;28.73;29.87;101244.09;5052299;28;20044;-81
2023/06/30 09:07:08;;;;;;;3.15;1.33;;;;;;;29.57;29.31;101242.97;5052215;28;20020;-80
2023/06/30 09:09:49;;;;;;;3.95;1.40;;;;;;;27.81;30.70;101253.06;5049380;28;20380;-82
2023/06/30 09:12:24;;;;;;;5.43;1.70;;;;;;;26.85;33.36;101243.25;5068339;28;20028;-81
2023/06/30 09:14:49;;;;;;;5.00;1.73;;;;;;;28.88;30.42;101248.47;5050912;28;20098;-81
2023/06/30 09:17:15;;;;;;;4.50;1.70;;;;;;;29.83;29.43;101245.88;5051236;28;20024;-81
2023/06/30 09:19:40;;;;;;;4.38;1.40;;;;;;;30.25;27.46;101242.81;5052231;28;20479;-81
2023/06/30 09:22:06;;;;;;;4.70;1.55;;;;;;;30.03;28.80;101238.97;5068673;28;20021;-81
2023/06/30 09:24:34;;;;;;;2.35;1.42;;;;;;;29.02;29.70;101230.97;5068025;28;20117;-81
2023/06/30 09:26:59;;;;;;;2.90;1.30;;;;;;;29.73;28.75;101233.09;5069915;28;20056;-81
2023/06/30 09:29:25;;;;;;;3.75;1.40;;;;;;;29.75;28.80;101236.38;5037378;28;20376;-81
2023/06/30 09:31:51;;;;;;;3.65;1.48;;;;;;;30.89;27.25;101230.34;5073326;28;20032;-82
2023/06/30 09:34:19;;;;;;;4.57;1.75;;;;;;;31.27;26.66;101229.69;5073176;28;20020;-81
2023/06/30 09:36:50;;;;;;;4.10;1.50;;;;;;;32.62;24.96;101231.28;5072557;28;20253;-82
2023/06/30 09:39:16;;;;;;;5.03;1.63;;;;;;;31.92;25.12;101219.72;5071251;28;20062;-82
2023/06/30 09:41:43;;;;;;;5.57;1.52;;;;;;;30.36;27.02;101208.03;5073054;28;20024;-82
2023/06/30 09:44:09;;;;;;;5.63;2.15;;;;;;;29.71;27.69;101215.13;5072859;28;20503;-82
2023/06/30 09:46:35;;;;;;;2.00;1.30;;;;;;;30.74;26.98;101211.38;5072670;28;20182;-82
2023/06/30 09:49:04;;;;;;;3.53;1.50;;;;;;;31.26;26.65;101211.38;5053354;28;20499;-82
2023/06/30 09:51:33;;;;;;;6.93;1.98;;;;;;;29.26;28.11;101207.66;5072639;28;20028;-82
2023/06/30 09:54:01;;;;;;;4.25;1.63;;;;;;;27.56;31.48;101215.63;5072695;28;20044;-81
2023/06/30 09:56:26;;;;;;;2.33;1.13;;;;;;;26.70;30.92;101208.38;5071292;28;20024;-81
2023/06/30 09:58:56;;;;;;;4.97;1.60;;;;;;;27.01;31.21;101207.94;5072458;28;20024;-81
2023/06/30 10:01:23;;;;;;;3.00;1.30;;;;;;;26.78;31.94;101204.94;5072114;28;20036;-81
2023/06/30 10:03:51;;;;;;;6.18;1.50;;;;;;;28.05;31.09;101205.03;5071315;28;20476;-81
2023/06/30 10:06:17;;;;;;;3.17;1.40;;;;;;;30.31;26.87;101207.34;5072334;28;20032;-82
2023/06/30 10:08:46;;;;;;;3.42;1.38;;;;;;;29.85;27.02;101201.13;5072251;28;20487;-81
2023/06/30 10:11:12;;;;;;;2.63;1.48;;;;;;;31.25;25.19;101204.16;5037931;28;20397;-81
2023/06/30 10:13:38;;;;;;;2.70;1.38;;;;;;;31.38;25.32;101207.09;5054488;28;20121;-81
2023/06/30 10:16:03;;;;;;;2.65;1.20;;;;;;;30.98;25.50;101206.16;5054402;28;20518;-81
2023/06/30 10:18:29;;;;;;;3.88;1.60;;;;;;;28.86;28.60;101202.78;5051866;28;20131;-82
2023/06/30 10:20:54;;;;;;;1.70;1.27;;;;;;;27.79;30.31;101193.66;5072061;28;20145;-82
2023/06/30 10:23:20;;;;;;;4.13;1.70;;;;;;;26.37;32.06;101195.28;5071368;28;20036;-82
2023/06/30 10:25:45;;;;;;;4.43;1.75;;;;;;;26.44;32.40;101195.75;5053773;28;20025;-81
2023/06/30 10:28:11;;;;;;;5.15;1.58;;;;;;;27.53;31.06;101192.19;5071892;28;20041;-82
2023/06/30 10:30:36;;;;;;;3.60;1.55;;;;;;;28.77;28.39;101194.41;5071173;28;20025;-82
2023/06/30 10:33:02;;;;;;;3.78;1.48;;;;;;;29.75;27.62;101194.75;5053005;28;20028;-82
2023/06/30 10:35:27;;;;;;;3.45;1.50;;;;;;;27.90;29.56;101189.53;5072289;28;20037;-82
2023/06/30 10:37:52;;;;;;;2.22;1.40;;;;;;;28.12;29.64;101190.81;5071504;28;20423;-81
2023/06/30 10:40:26;;;;;;;4.68;1.52;;;;;;;28.66;28.38;101177.19;5034973;28;20039;-81
2023/06/30 10:42:56;;;;;;;3.03;1.60;;;;;;;28.73;28.22;101182.31;5067999;28;20059;-81
2023/06/30 10:45:32;;;;;;;3.38;1.50;;;;;;;29.37;27.01;101173.00;5071145;28;20254;-81
2023/06/30 10:47:58;;;;;;;5.00;1.73;;;;;;;29.09;26.68;101173.16;5070070;28;20048;-82
2023/06/30 10:50:23;;;;;;;3.42;1.70;;;;;;;29.91;26.69;101175.72;5054820;28;20452;-81
2023/06/30 10:52:50;;;;;;;3.67;1.65;;;;;;;30.81;24.95;101170.03;5069860;28;20032;-82
2023/06/30 10:55:18;;;;;;;2.92;1.50;;;;;;;30.18;25.20;101171.06;5070658;28;20017;-82
2023/06/30 10:57:43;;;;;;;3.63;1.60;;;;;;;30.74;25.25;101173.28;5054195;28;20097;-81
2023/06/30 11:00:14;;;;;;;4.20;1.75;;;;;;;30.52;24.96;101163.94;5051957;28;20484;-81
2023/06/30 11:02:48;;;;;;;4.07;1.48;;;;;;;29.46;26.16;101162.81;5070130;28;20058;-81
2023/06/30 11:05:22;;;;;;;2.22;1.50;;;;;;;28.48;28.32;101159.59;5070110;28;20507;-81
2023/06/30 11:07:52;;;;;;;4.67;1.80;;;;;;;27.03;30.04;101159.53;5069779;28;20364;-81
2023/06/30 11:10:36;;;;;;;3.00;1.60;;;;;;;26.02;32.55;101159.56;5070937;28;20021;-82
2023/06/30 11:13:08;;;;;;;3.92;1.48;;;;;;;25.34;33.02;101155.81;5071578;28;20404;-82
2023/06/30 11:15:35;;;;;;;3.78;1.80;;;;;;;25.26;33.15;101149.00;5069955;28;20056;-82
2023/06/30 11:18:06;;;;;;;2.83;1.90;;;;;;;25.18;32.77;101144.13;5071515;28;20020;-82
2023/06/30 11:20:31;;;;;;;3.85;1.70;;;;;;;25.49;33.05;101149.38;5069491;28;20021;-82